Time;durP1;ratioP1;P1;durP2;ratioP2;P2;SDS_P1;SDS_P2;PMS_P1;PMS_P2;Temp;Humidity;BMP_temperature;BMP_pressure;BME280_temperature;BME280_humidity;BME280_pressure;Samples;Min_cycle;Max_cycle;Signal;HPM_P1;HPM_P2
2021/05/19 00:02:25;;;;;;;2.10;0.90;;;9.20;99.90;;;;;;5076508;28;20039;-81
2021/05/19 00:04:51;;;;;;;1.73;0.70;;;9.20;99.90;;;;;;5086130;28;20017;-83
2021/05/19 00:07:17;;;;;;;2.63;1.15;;;9.20;99.90;;;;;;5087075;28;20107;-83
2021/05/19 00:09:42;;;;;;;1.40;0.57;;;9.20;99.90;;;;;;5079567;28;20488;-82
2021/05/19 00:12:08;;;;;;;3.35;0.70;;;9.20;99.90;;;;;;5078291;28;20130;-83
2021/05/19 00:14:34;;;;;;;1.50;0.50;;;9.20;99.90;;;;;;5083407;28;20110;-82
2021/05/19 00:16:59;;;;;;;1.63;0.60;;;9.20;99.90;;;;;;5080304;28;20028;-83
2021/05/19 00:19:25;;;;;;;1.33;0.52;;;9.20;99.90;;;;;;5087235;28;20450;-83
2021/05/19 00:21:51;;;;;;;2.60;0.90;;;9.20;99.90;;;;;;5082704;28;20727;-83
2021/05/19 00:24:17;;;;;;;1.67;0.75;;;9.20;99.90;;;;;;5077063;28;20032;-83
2021/05/19 00:26:43;;;;;;;3.20;0.60;;;9.20;99.90;;;;;;5084045;28;20393;-83
2021/05/19 00:29:12;;;;;;;1.40;0.65;;;9.20;99.90;;;;;;5080825;28;20119;-82
2021/05/19 00:31:41;;;;;;;3.72;0.90;;;9.20;99.90;;;;;;5071471;28;20039;-83
2021/05/19 00:34:07;;;;;;;2.53;0.90;;;9.30;99.90;;;;;;5081383;28;20085;-83
2021/05/19 00:36:33;;;;;;;1.42;0.63;;;9.30;99.90;;;;;;5083241;28;20024;-82
2021/05/19 00:38:58;;;;;;;2.03;0.80;;;9.30;99.90;;;;;;5090259;28;20028;-83
2021/05/19 00:41:25;;;;;;;3.03;0.75;;;9.30;99.90;;;;;;5093520;28;20020;-83
2021/05/19 00:43:50;;;;;;;1.60;0.75;;;9.30;99.90;;;;;;5085168;28;20025;-83
2021/05/19 00:46:16;;;;;;;2.40;0.95;;;9.30;99.90;;;;;;5092444;28;20020;-82
2021/05/19 00:48:42;;;;;;;2.95;0.80;;;9.30;99.90;;;;;;5091378;28;20036;-83
2021/05/19 00:51:07;;;;;;;3.90;0.80;;;9.30;99.90;;;;;;5087482;28;20035;-83
2021/05/19 00:53:33;;;;;;;1.80;0.77;;;9.30;99.90;;;;;;5076368;28;20059;-82
2021/05/19 00:56:00;;;;;;;1.60;0.80;;;9.30;99.90;;;;;;5087055;28;20039;-83
2021/05/19 00:58:26;;;;;;;1.52;0.70;;;9.30;99.90;;;;;;5086653;28;20115;-83
2021/05/19 01:00:52;;;;;;;1.67;0.90;;;9.30;99.90;;;;;;5094038;28;20093;-83
2021/05/19 01:03:17;;;;;;;3.65;1.00;;;9.20;99.90;;;;;;5089132;28;20036;-82
2021/05/19 01:10:54;;;;;;;1.40;0.60;;;9.20;99.90;;;;;;5084753;28;20177;-82
2021/05/19 01:13:20;;;;;;;1.77;0.60;;;9.30;99.90;;;;;;5085498;28;20085;-83
2021/05/19 01:15:47;;;;;;;2.58;0.85;;;9.30;99.90;;;;;;5086179;28;20427;-82
2021/05/19 01:18:13;;;;;;;2.17;0.95;;;9.30;99.90;;;;;;5084609;28;20024;-82
2021/05/19 01:20:39;;;;;;;2.08;0.80;;;9.30;99.90;;;;;;5077905;28;20078;-83
2021/05/19 01:23:07;;;;;;;2.58;1.10;;;9.30;99.90;;;;;;5079047;28;20157;-82
2021/05/19 01:25:34;;;;;;;2.67;1.25;;;9.20;99.90;;;;;;5080627;28;20063;-82
2021/05/19 01:28:03;;;;;;;2.78;0.80;;;9.30;99.90;;;;;;5088476;28;20679;-83
2021/05/19 01:30:30;;;;;;;1.77;0.88;;;9.30;99.90;;;;;;5085203;28;20043;-83
2021/05/19 01:32:56;;;;;;;1.77;0.90;;;9.20;99.90;;;;;;5085457;28;20425;-83
2021/05/19 01:35:21;;;;;;;2.72;1.23;;;9.20;99.90;;;;;;5092667;28;20097;-82
2021/05/19 01:37:48;;;;;;;2.25;0.90;;;9.30;99.90;;;;;;5090332;28;20817;-82
2021/05/19 01:40:16;;;;;;;3.17;0.90;;;9.30;99.90;;;;;;5086703;28;20039;-83
2021/05/19 01:42:46;;;;;;;2.97;1.00;;;9.20;99.90;;;;;;5093621;28;20697;-82
2021/05/19 01:45:13;;;;;;;2.47;1.00;;;9.20;99.90;;;;;;5086166;28;20013;-83
2021/05/19 01:47:50;;;;;;;2.55;0.90;;;9.10;99.90;;;;;;5086460;28;20059;-82
2021/05/19 01:50:19;;;;;;;2.03;1.08;;;9.10;99.90;;;;;;5085024;28;20496;-82
2021/05/19 01:52:45;;;;;;;1.85;1.00;;;9.10;99.90;;;;;;5090819;28;20061;-82
2021/05/19 01:55:14;;;;;;;2.80;0.90;;;9.10;99.90;;;;;;5089579;28;20019;-83
2021/05/19 01:57:43;;;;;;;3.22;1.00;;;9.10;99.90;;;;;;5087960;28;20020;-83
2021/05/19 02:00:11;;;;;;;2.33;1.17;;;9.00;99.90;;;;;;5091636;28;20296;-82
2021/05/19 02:02:37;;;;;;;2.90;0.85;;;9.10;99.90;;;;;;5092227;28;20047;-83
2021/05/19 02:05:03;;;;;;;1.88;0.90;;;9.00;99.90;;;;;;5086012;28;20031;-83
2021/05/19 02:07:29;;;;;;;3.30;1.00;;;8.90;99.90;;;;;;5078744;28;20024;-82
2021/05/19 02:09:54;;;;;;;2.03;0.98;;;8.90;99.90;;;;;;5080654;28;20039;-83
2021/05/19 02:12:20;;;;;;;2.33;1.00;;;8.90;99.90;;;;;;5092733;28;20048;-82
2021/05/19 02:14:46;;;;;;;2.22;1.10;;;8.80;99.90;;;;;;5090474;28;20039;-83
2021/05/19 02:17:12;;;;;;;1.75;1.00;;;8.80;99.90;;;;;;5090236;28;20052;-83
2021/05/19 02:19:39;;;;;;;1.75;0.98;;;8.80;99.90;;;;;;5082199;28;20035;-82
2021/05/19 02:22:05;;;;;;;3.45;1.17;;;8.90;99.90;;;;;;5087881;28;20020;-83
2021/05/19 02:24:32;;;;;;;2.50;1.02;;;8.90;99.90;;;;;;5084542;28;20029;-83
2021/05/19 02:26:58;;;;;;;1.40;0.80;;;8.90;99.90;;;;;;5078251;28;20035;-83
2021/05/19 02:29:24;;;;;;;2.22;1.02;;;8.90;99.90;;;;;;5083415;28;20025;-82
2021/05/19 02:31:50;;;;;;;3.45;1.20;;;8.90;99.90;;;;;;5081179;28;20090;-83
2021/05/19 02:34:15;;;;;;;2.20;0.90;;;8.80;99.90;;;;;;5086253;28;20802;-82
2021/05/19 02:36:41;;;;;;;1.83;1.02;;;8.80;99.90;;;;;;5081314;28;20028;-83
2021/05/19 02:39:09;;;;;;;2.58;1.00;;;8.80;99.90;;;;;;5082570;28;20044;-83
2021/05/19 02:41:37;;;;;;;2.55;1.02;;;8.80;99.90;;;;;;5085560;28;20012;-83
2021/05/19 02:44:04;;;;;;;2.50;1.20;;;8.70;99.90;;;;;;5086867;28;20020;-82
2021/05/19 02:46:29;;;;;;;2.13;0.90;;;8.60;99.90;;;;;;5084907;28;20040;-83
2021/05/19 02:49:01;;;;;;;1.85;0.77;;;8.50;99.90;;;;;;5082999;28;20016;-83
2021/05/19 02:51:28;;;;;;;1.77;1.00;;;8.50;99.90;;;;;;5086323;28;20020;-83
2021/05/19 02:53:54;;;;;;;2.75;0.90;;;8.50;99.90;;;;;;5075910;28;20800;-82
2021/05/19 02:56:20;;;;;;;2.40;1.02;;;8.50;99.90;;;;;;5085276;28;20032;-82
2021/05/19 02:58:45;;;;;;;2.60;1.08;;;8.50;99.90;;;;;;5087350;28;20032;-82
2021/05/19 03:01:11;;;;;;;2.90;0.90;;;8.50;99.90;;;;;;5083577;28;20345;-84
2021/05/19 03:03:37;;;;;;;2.50;0.90;;;8.50;99.90;;;;;;5087023;28;20341;-83
2021/05/19 03:06:02;;;;;;;3.17;1.20;;;8.50;99.90;;;;;;5079217;28;20032;-83
2021/05/19 03:08:28;;;;;;;2.80;1.33;;;8.60;99.90;;;;;;5075074;28;20040;-83
2021/05/19 03:10:54;;;;;;;2.33;1.10;;;8.60;99.90;;;;;;5081384;28;20120;-83
2021/05/19 03:13:19;;;;;;;3.08;1.10;;;8.60;99.90;;;;;;5085677;28;20042;-83
2021/05/19 03:15:45;;;;;;;2.13;1.02;;;8.70;99.90;;;;;;5079543;28;20042;-83
2021/05/19 03:18:10;;;;;;;2.95;1.13;;;8.70;99.90;;;;;;5078194;28;20048;-82
2021/05/19 03:20:36;;;;;;;2.97;1.17;;;8.70;99.90;;;;;;5085715;28;20036;-82
2021/05/19 03:23:02;;;;;;;2.17;1.05;;;8.70;99.90;;;;;;5081024;28;20408;-82
2021/05/19 03:25:27;;;;;;;2.10;0.95;;;8.70;99.90;;;;;;5086251;28;20027;-82
2021/05/19 03:27:53;;;;;;;2.50;1.20;;;8.70;99.90;;;;;;5089429;28;20106;-82
2021/05/19 03:30:19;;;;;;;2.55;1.08;;;8.60;99.90;;;;;;5084195;28;20051;-83
2021/05/19 03:32:45;;;;;;;3.10;1.15;;;8.60;99.90;;;;;;5080988;28;20135;-83
2021/05/19 03:35:12;;;;;;;3.80;1.25;;;8.60;99.90;;;;;;5086654;28;20048;-82
2021/05/19 03:37:38;;;;;;;2.80;1.10;;;8.70;99.90;;;;;;5075023;28;20533;-83
2021/05/19 03:40:06;;;;;;;2.30;0.93;;;8.60;99.90;;;;;;5091081;28;20047;-83
2021/05/19 03:42:32;;;;;;;1.60;0.77;;;8.70;99.90;;;;;;5083007;28;20528;-82
2021/05/19 03:44:57;;;;;;;3.25;1.10;;;8.70;99.90;;;;;;5083335;28;20051;-82
2021/05/19 03:47:23;;;;;;;1.92;0.90;;;8.60;99.90;;;;;;5089220;28;20059;-83
2021/05/19 03:49:50;;;;;;;2.25;0.93;;;8.60;99.90;;;;;;5084849;28;20048;-83
2021/05/19 03:52:17;;;;;;;2.95;1.08;;;8.50;99.90;;;;;;5091389;28;20058;-83
2021/05/19 03:54:44;;;;;;;2.53;0.90;;;8.50;99.90;;;;;;5077832;28;20035;-82
2021/05/19 03:57:11;;;;;;;3.90;1.10;;;8.50;99.90;;;;;;5086004;28;20092;-83
2021/05/19 03:59:37;;;;;;;3.80;1.38;;;8.50;99.90;;;;;;5078540;28;20439;-83
2021/05/19 04:02:04;;;;;;;2.55;1.10;;;8.50;99.90;;;;;;5085492;28;20119;-85
2021/05/19 04:04:30;;;;;;;3.85;1.10;;;8.50;99.90;;;;;;5079221;28;20101;-81
2021/05/19 04:06:56;;;;;;;1.92;0.90;;;8.60;99.90;;;;;;5081289;28;20032;-83
2021/05/19 04:09:21;;;;;;;2.55;1.02;;;8.60;99.90;;;;;;5080495;28;20024;-82
2021/05/19 04:11:47;;;;;;;3.10;1.33;;;8.60;99.90;;;;;;5086464;28;20435;-83
2021/05/19 04:14:13;;;;;;;2.85;1.10;;;8.50;99.90;;;;;;5079379;28;20029;-82
2021/05/19 04:16:39;;;;;;;2.53;1.27;;;8.50;99.90;;;;;;5085676;28;20028;-82
2021/05/19 04:19:05;;;;;;;2.50;1.30;;;8.50;99.90;;;;;;5080141;28;20038;-83
2021/05/19 04:21:31;;;;;;;4.03;1.13;;;8.50;99.90;;;;;;5078643;28;20116;-80
2021/05/19 04:23:57;;;;;;;4.53;1.20;;;8.50;99.90;;;;;;5080520;28;20028;-82
2021/05/19 04:26:24;;;;;;;2.67;1.00;;;8.60;99.90;;;;;;5078105;28;20521;-85
2021/05/19 04:28:49;;;;;;;2.92;1.40;;;8.60;99.90;;;;;;5086457;28;20028;-81
2021/05/19 04:31:16;;;;;;;3.10;1.08;;;8.70;99.90;;;;;;5082874;28;20626;-82
2021/05/19 04:33:42;;;;;;;2.05;1.10;;;8.70;99.90;;;;;;5082165;28;20036;-83
2021/05/19 04:36:07;;;;;;;1.95;1.10;;;8.80;99.90;;;;;;5085208;28;20039;-83
2021/05/19 04:38:33;;;;;;;2.00;0.90;;;8.80;99.90;;;;;;5085143;28;20076;-83
2021/05/19 04:40:59;;;;;;;1.85;1.00;;;8.80;99.90;;;;;;5082846;28;20043;-81
2021/05/19 04:43:25;;;;;;;3.38;1.50;;;8.80;99.90;;;;;;5082629;28;20048;-82
2021/05/19 04:45:53;;;;;;;2.15;1.02;;;8.80;99.90;;;;;;5081630;28;20020;-81
2021/05/19 04:48:19;;;;;;;2.13;1.20;;;8.80;99.90;;;;;;5085734;28;20024;-81
2021/05/19 04:50:44;;;;;;;2.08;1.10;;;8.70;99.90;;;;;;5083875;28;20024;-82
2021/05/19 04:53:11;;;;;;;3.85;1.23;;;8.60;99.90;;;;;;5077283;28;20070;-82
2021/05/19 04:55:38;;;;;;;2.55;1.10;;;8.60;99.90;;;;;;5081997;28;20035;-82
2021/05/19 04:58:04;;;;;;;2.17;1.05;;;8.60;99.90;;;;;;5075213;28;20033;-83
2021/05/19 05:00:32;;;;;;;3.50;1.27;;;8.60;99.90;;;;;;5077179;28;20473;-83
2021/05/19 05:02:58;;;;;;;2.97;1.40;;;8.60;99.90;;;;;;5080060;28;20082;-83
2021/05/19 05:05:25;;;;;;;2.00;1.10;;;8.70;99.90;;;;;;5076078;28;20021;-82
2021/05/19 05:07:51;;;;;;;3.53;1.30;;;8.70;99.90;;;;;;5078947;28;20066;-84
2021/05/19 05:10:17;;;;;;;3.22;1.42;;;8.70;99.90;;;;;;5082768;28;20028;-80
2021/05/19 05:12:44;;;;;;;2.17;0.90;;;8.70;99.90;;;;;;5082405;28;20020;-83
2021/05/19 05:15:11;;;;;;;2.30;1.13;;;8.70;99.90;;;;;;5077546;28;20024;-83
2021/05/19 05:17:38;;;;;;;3.28;1.48;;;8.70;99.90;;;;;;5082042;28;20221;-83
2021/05/19 05:20:08;;;;;;;4.50;1.50;;;8.70;99.90;;;;;;5077899;28;20032;-83
2021/05/19 05:22:34;;;;;;;2.63;1.38;;;8.70;99.90;;;;;;5075742;28;20017;-81
2021/05/19 05:25:00;;;;;;;3.70;1.52;;;8.80;99.90;;;;;;5081890;28;20488;-82
2021/05/19 05:27:26;;;;;;;3.20;1.60;;;8.90;99.90;;;;;;5091741;28;20450;-82
2021/05/19 05:29:51;;;;;;;4.43;1.60;;;9.00;99.90;;;;;;5083377;28;20054;-84
2021/05/19 05:32:17;;;;;;;2.65;1.23;;;9.10;99.90;;;;;;5075226;28;20029;-83
2021/05/19 05:34:44;;;;;;;3.97;1.60;;;9.20;99.90;;;;;;5089685;28;20024;-84
2021/05/19 05:37:09;;;;;;;3.92;1.45;;;9.30;99.90;;;;;;5081488;28;20058;-84
2021/05/19 05:39:35;;;;;;;4.43;1.75;;;9.40;99.90;;;;;;5086297;28;20020;-84
2021/05/19 05:42:00;;;;;;;3.25;1.48;;;9.40;99.90;;;;;;5068464;28;20446;-84
2021/05/19 05:44:26;;;;;;;2.83;1.60;;;9.40;99.90;;;;;;5071222;28;20402;-84
2021/05/19 05:46:52;;;;;;;4.47;1.55;;;9.30;99.90;;;;;;5065578;28;21211;-84
2021/05/19 05:49:19;;;;;;;3.90;1.80;;;9.50;99.90;;;;;;5065766;28;20171;-84
2021/05/19 05:51:46;;;;;;;2.80;1.48;;;9.50;99.90;;;;;;5064996;28;20370;-83
2021/05/19 05:54:12;;;;;;;2.97;1.35;;;9.60;99.90;;;;;;5070535;28;20035;-84
2021/05/19 05:56:40;;;;;;;3.33;1.58;;;9.60;99.90;;;;;;5063206;28;20492;-84
2021/05/19 05:59:07;;;;;;;3.20;1.70;;;9.50;99.90;;;;;;5064993;28;20017;-84
2021/05/19 06:01:33;;;;;;;2.78;1.50;;;9.50;99.90;;;;;;5071287;28;20029;-84
2021/05/19 06:03:59;;;;;;;3.53;1.52;;;9.50;99.90;;;;;;5071316;28;20074;-84
2021/05/19 06:06:24;;;;;;;4.57;1.50;;;9.50;99.90;;;;;;5057660;28;20033;-83
2021/05/19 06:08:50;;;;;;;5.38;1.77;;;9.60;99.90;;;;;;5077119;28;20027;-83
2021/05/19 06:11:16;;;;;;;2.90;1.55;;;9.50;99.90;;;;;;5072733;28;20082;-84
2021/05/19 06:13:42;;;;;;;3.35;1.83;;;9.40;99.90;;;;;;5072014;28;20081;-84
2021/05/19 06:16:07;;;;;;;2.63;1.50;;;9.40;99.90;;;;;;5069511;28;20025;-84
2021/05/19 06:18:33;;;;;;;2.88;1.67;;;9.50;99.90;;;;;;5067066;28;20032;-84
2021/05/19 06:20:59;;;;;;;3.67;1.88;;;9.50;99.90;;;;;;5065487;28;20228;-84
2021/05/19 06:23:24;;;;;;;3.55;1.90;;;9.50;99.90;;;;;;5067512;28;20025;-83
2021/05/19 06:25:50;;;;;;;4.85;1.90;;;9.60;99.90;;;;;;5065162;28;20031;-84
2021/05/19 06:28:16;;;;;;;3.22;1.77;;;9.70;99.90;;;;;;5070576;28;20453;-84
2021/05/19 06:30:41;;;;;;;4.95;2.25;;;9.80;99.90;;;;;;5067830;28;20110;-84
2021/05/19 06:33:07;;;;;;;4.13;2.05;;;9.90;99.90;;;;;;5073682;28;20024;-84
2021/05/19 06:35:33;;;;;;;3.78;1.60;;;10.00;99.90;;;;;;5068556;28;20063;-84
2021/05/19 06:37:58;;;;;;;3.17;1.70;;;10.00;99.90;;;;;;5070648;28;20028;-84
2021/05/19 06:40:24;;;;;;;3.60;1.60;;;10.10;99.90;;;;;;5075661;28;20021;-84
2021/05/19 06:42:50;;;;;;;4.20;1.80;;;10.20;99.90;;;;;;5069615;28;20218;-84
2021/05/19 06:45:16;;;;;;;4.55;1.90;;;10.10;99.90;;;;;;5070532;28;20021;-84
2021/05/19 06:47:42;;;;;;;3.63;1.60;;;10.20;99.90;;;;;;5071291;28;20080;-84
2021/05/19 06:50:08;;;;;;;5.22;2.00;;;10.30;99.90;;;;;;5063283;28;20033;-84
2021/05/19 06:52:34;;;;;;;4.68;2.33;;;10.40;99.90;;;;;;5070779;28;20024;-85
2021/05/19 06:55:05;;;;;;;4.28;1.73;;;10.50;99.90;;;;;;5070745;28;20393;-84
2021/05/19 06:57:32;;;;;;;4.07;1.93;;;10.80;99.90;;;;;;5071429;28;20119;-84
2021/05/19 06:59:57;;;;;;;2.85;1.63;;;11.10;99.90;;;;;;5069861;28;20774;-87
2021/05/19 07:02:23;;;;;;;3.05;1.63;;;11.10;99.90;;;;;;5064849;28;20064;-87
2021/05/19 07:04:49;;;;;;;4.50;1.85;;;11.20;99.90;;;;;;5069931;28;20017;-86
2021/05/19 07:07:14;;;;;;;3.63;1.75;;;11.20;99.90;;;;;;5078251;28;20016;-86
2021/05/19 07:09:40;;;;;;;4.30;1.70;;;11.40;99.90;;;;;;5070310;28;20032;-86
2021/05/19 07:12:06;;;;;;;3.20;1.48;;;11.30;99.90;;;;;;5074153;28;20361;-86
2021/05/19 07:14:35;;;;;;;2.75;1.30;;;11.40;99.90;;;;;;5071987;28;20020;-88
2021/05/19 07:17:00;;;;;;;2.70;1.30;;;11.60;99.90;;;;;;5076085;28;20035;-88
2021/05/19 07:19:26;;;;;;;3.78;1.60;;;11.90;99.90;;;;;;5070945;28;20390;-88
2021/05/19 07:21:52;;;;;;;2.40;1.30;;;12.20;99.90;;;;;;5060664;28;20035;-89
2021/05/19 07:24:18;;;;;;;2.30;1.25;;;12.30;99.90;;;;;;5065073;28;20422;-89
2021/05/19 07:26:46;;;;;;;2.58;1.35;;;12.30;99.90;;;;;;5082998;28;20036;-91
2021/05/19 07:29:12;;;;;;;4.25;1.17;;;12.80;99.90;;;;;;5069467;28;20020;-88
2021/05/19 07:31:40;;;;;;;2.90;1.20;;;13.10;99.90;;;;;;5081289;28;20032;-88
2021/05/19 07:34:07;;;;;;;3.78;1.20;;;13.00;99.90;;;;;;5082541;28;20024;-88
2021/05/19 07:36:33;;;;;;;2.28;1.20;;;13.20;99.90;;;;;;5069547;28;20028;-90
2021/05/19 07:38:58;;;;;;;2.30;0.90;;;13.50;99.90;;;;;;5066284;28;20504;-89
2021/05/19 07:41:25;;;;;;;2.13;0.90;;;13.30;99.90;;;;;;5070979;28;20017;-86
2021/05/19 07:43:51;;;;;;;1.90;0.88;;;12.90;99.90;;;;;;5061399;28;20036;-87
2021/05/19 07:46:18;;;;;;;2.75;1.00;;;12.50;99.90;;;;;;5059836;28;20052;-90
2021/05/19 07:48:44;;;;;;;3.28;1.00;;;12.20;99.90;;;;;;5063674;28;20086;-86
2021/05/19 07:51:10;;;;;;;3.78;0.93;;;12.00;99.90;;;;;;5069054;28;20036;-88
2021/05/19 07:53:36;;;;;;;2.60;0.93;;;11.80;99.90;;;;;;5075844;28;20037;-88
2021/05/19 07:58:41;;;;;;;3.08;1.15;;;11.50;99.90;;;;;;5066257;28;20048;-89
2021/05/19 08:03:51;;;;;;;3.92;1.40;;;11.40;99.90;;;;;;5067296;28;20071;-87
2021/05/19 08:06:18;;;;;;;2.92;1.17;;;11.40;99.90;;;;;;5065942;28;20124;-86
2021/05/19 08:08:44;;;;;;;3.28;0.90;;;11.60;99.90;;;;;;5070900;28;20091;-86
2021/05/19 08:11:10;;;;;;;2.33;1.05;;;11.70;99.90;;;;;;5066395;28;20040;-86
2021/05/19 08:13:39;;;;;;;2.42;1.10;;;11.70;99.90;;;;;;5064499;28;20107;-86
2021/05/19 08:16:08;;;;;;;3.30;1.20;;;11.80;99.90;;;;;;5071244;28;20034;-87
2021/05/19 08:18:35;;;;;;;1.90;1.00;;;11.90;99.90;;;;;;5069809;28;20025;-87
2021/05/19 08:21:01;;;;;;;2.17;0.93;;;11.90;99.90;;;;;;5069360;28;20476;-86
2021/05/19 08:23:26;;;;;;;4.03;1.25;;;12.10;99.90;;;;;;5074345;28;20025;-87
2021/05/19 08:25:52;;;;;;;2.10;0.95;;;12.20;99.90;;;;;;5069439;28;20080;-86
2021/05/19 08:28:18;;;;;;;2.28;1.02;;;12.20;99.90;;;;;;5055604;28;20036;-86
2021/05/19 08:30:44;;;;;;;2.95;1.30;;;12.20;99.90;;;;;;5067911;28;20504;-87
2021/05/19 08:33:10;;;;;;;3.78;1.13;;;12.40;99.90;;;;;;5071871;28;20040;-88
2021/05/19 08:35:35;;;;;;;2.15;1.00;;;12.40;99.90;;;;;;5083801;28;20028;-87
2021/05/19 08:38:02;;;;;;;2.95;1.10;;;12.50;99.90;;;;;;5074026;28;20021;-85
2021/05/19 08:40:28;;;;;;;3.58;0.98;;;12.50;99.90;;;;;;5073270;28;20029;-86
2021/05/19 08:42:55;;;;;;;5.97;1.35;;;12.90;99.90;;;;;;5070260;28;20044;-85
2021/05/19 08:45:20;;;;;;;3.13;0.90;;;12.80;99.90;;;;;;5070140;28;20060;-85
2021/05/19 08:47:56;;;;;;;2.92;1.00;;;12.60;99.90;;;;;;5076845;28;20096;-85
2021/05/19 08:50:25;;;;;;;2.00;1.08;;;12.60;99.90;;;;;;5072408;28;20024;-86
2021/05/19 08:52:51;;;;;;;2.58;1.10;;;12.70;99.90;;;;;;5047212;28;20043;-86
2021/05/19 08:55:19;;;;;;;2.75;1.20;;;12.90;99.90;;;;;;5070449;28;20021;-85
2021/05/19 08:57:49;;;;;;;3.08;0.93;;;13.10;99.90;;;;;;5083082;28;20024;-85
2021/05/19 09:00:16;;;;;;;3.03;1.00;;;13.50;99.90;;;;;;5076934;28;20024;-85
2021/05/19 09:03:06;;;;;;;3.30;0.95;;;13.80;99.90;;;;;;5079718;28;20025;-85
2021/05/19 09:05:35;;;;;;;3.08;0.95;;;14.10;99.90;;;;;;5073255;28;20445;-86
2021/05/19 09:08:13;;;;;;;0.95;0.47;;;14.40;99.90;;;;;;5072803;28;20499;-85
2021/05/19 09:10:44;;;;;;;2.85;0.70;;;14.30;99.90;;;;;;5065169;28;20112;-85
2021/05/19 09:13:47;;;;;;;1.25;0.60;;;14.30;99.90;;;;;;5072045;28;20058;-86
2021/05/19 09:16:31;;;;;;;1.55;0.70;;;14.20;99.90;;;;;;5048260;28;20155;-87
2021/05/19 09:18:58;;;;;;;1.80;0.60;;;14.50;99.90;;;;;;5062931;28;20024;-87
2021/05/19 09:21:37;;;;;;;1.40;0.68;;;14.60;99.90;;;;;;5065961;28;20028;-84
2021/05/19 09:24:09;;;;;;;1.73;0.88;;;14.70;99.90;;;;;;5067369;28;20015;-86
2021/05/19 09:26:54;;;;;;;;;;;14.70;99.90;;;;;;5075492;28;20025;-85
2021/05/19 09:29:27;;;;;;;1.63;0.45;;;14.40;99.90;;;;;;5078030;28;19976;-84
2021/05/19 09:31:58;;;;;;;2.00;0.43;;;14.40;99.90;;;;;;5086513;28;20031;-84
2021/05/19 09:34:31;;;;;;;1.48;0.43;;;14.50;99.90;;;;;;5069788;28;20024;-85
2021/05/19 09:37:25;;;;;;;1.45;0.30;;;14.90;99.90;;;;;;5071336;28;20093;-84
2021/05/19 09:39:51;;;;;;;1.45;0.30;;;15.30;99.90;;;;;;5077689;28;20086;-85
2021/05/19 09:42:19;;;;;;;1.30;0.40;;;15.60;99.50;;;;;;5082628;28;20028;-85
2021/05/19 09:44:49;;;;;;;0.50;0.30;;;15.80;98.40;;;;;;5081280;28;20087;-84
2021/05/19 09:47:35;;;;;;;1.33;0.40;;;15.80;98.30;;;;;;5078619;28;20017;-87
2021/05/19 09:50:02;;;;;;;0.68;0.30;;;15.90;95.90;;;;;;5075442;28;20079;-89
2021/05/19 09:52:27;;;;;;;1.33;0.50;;;15.80;95.30;;;;;;5077297;28;20078;-87
2021/05/19 09:55:05;;;;;;;0.70;0.30;;;15.60;95.30;;;;;;5083442;28;20024;-90
2021/05/19 09:57:53;;;;;;;0.90;0.40;;;15.40;96.80;;;;;;5080836;28;20029;-90
2021/05/19 10:00:24;;;;;;;2.00;0.40;;;15.70;95.90;;;;;;5079447;28;20047;-90
2021/05/19 10:02:51;;;;;;;2.17;0.35;;;16.10;96.30;;;;;;5086289;28;20028;-88
2021/05/19 10:05:24;;;;;;;1.42;0.40;;;16.20;95.40;;;;;;5073642;28;20170;-88
2021/05/19 10:07:53;;;;;;;1.58;0.22;;;16.00;94.70;;;;;;5082420;28;20067;-88
2021/05/19 10:10:19;;;;;;;0.52;0.20;;;16.50;92.20;;;;;;5076823;28;20081;-85
2021/05/19 10:12:46;;;;;;;2.67;0.30;;;16.60;90.50;;;;;;5078819;28;20448;-86
2021/05/19 10:15:18;;;;;;;1.23;0.47;;;16.70;91.40;;;;;;5070962;28;20112;-84
2021/05/19 10:17:47;;;;;;;0.08;0.08;;;16.60;90.70;;;;;;5074936;28;20032;-84
2021/05/19 10:20:19;;;;;;;0.20;0.10;;;16.30;88.90;;;;;;5077524;28;20033;-87
2021/05/19 10:22:48;;;;;;;0.40;0.10;;;16.50;84.30;;;;;;5079995;28;20051;-86
2021/05/19 10:25:46;;;;;;;1.55;0.20;;;16.70;78.70;;;;;;5080986;28;20048;-86
2021/05/19 10:28:15;;;;;;;3.17;0.15;;;17.10;74.30;;;;;;5068979;28;20346;-87
2021/05/19 10:30:46;;;;;;;1.25;0.10;;;17.20;77.20;;;;;;5071269;28;20043;-89
2021/05/19 10:33:30;;;;;;;2.15;0.20;;;16.90;71.80;;;;;;5069296;28;20032;-87
2021/05/19 10:36:01;;;;;;;0.63;0.20;;;16.80;69.40;;;;;;5081159;28;20024;-87
2021/05/19 10:38:33;;;;;;;0.22;0.00;;;16.90;68.00;;;;;;5080132;28;20031;-87
2021/05/19 10:41:02;;;;;;;0.38;0.10;;;17.10;66.60;;;;;;5080913;28;20020;-87
2021/05/19 10:43:47;;;;;;;4.88;0.20;;;17.30;65.70;;;;;;5085251;28;20028;-88
2021/05/19 10:46:15;;;;;;;0.65;0.10;;;17.40;67.80;;;;;;5078173;28;20040;-88
2021/05/19 10:48:41;;;;;;;0.65;0.30;;;17.30;71.10;;;;;;5087124;28;20024;-88
2021/05/19 10:51:41;;;;;;;1.77;0.20;;;17.40;70.10;;;;;;5074510;28;20024;-88
2021/05/19 11:00:22;;;;;;;0.57;0.17;;;17.80;68.10;;;;;;5082687;28;20076;-89
2021/05/19 11:03:04;;;;;;;0.70;0.10;;;17.30;69.10;;;;;;5085121;28;20020;-90
2021/05/19 11:05:35;;;;;;;0.20;0.10;;;17.90;68.30;;;;;;5083480;28;20111;-89
2021/05/19 11:08:13;;;;;;;1.25;0.40;;;17.90;65.50;;;;;;5086044;28;20089;-89
2021/05/19 11:10:53;;;;;;;1.77;0.30;;;18.10;65.90;;;;;;5072013;28;20033;-90
2021/05/19 11:13:23;;;;;;;1.60;0.40;;;18.30;65.80;;;;;;5071900;28;20074;-89
2021/05/19 11:21:04;;;;;;;1.88;0.20;;;17.90;62.90;;;;;;5071931;28;20111;-92
2021/05/19 11:23:31;;;;;;;0.43;0.20;;;17.70;63.40;;;;;;5076639;28;20024;-91
2021/05/19 11:26:15;;;;;;;1.45;0.30;;;17.50;65.50;;;;;;5077853;28;20508;-89
2021/05/19 11:28:43;;;;;;;0.90;0.20;;;17.50;65.30;;;;;;5077211;28;20085;-89
2021/05/19 11:31:17;;;;;;;1.73;0.30;;;17.50;65.40;;;;;;5076347;28;20386;-90
2021/05/19 11:33:58;;;;;;;1.17;0.25;;;17.70;62.50;;;;;;5080335;28;20492;-90
2021/05/19 11:36:45;;;;;;;1.13;0.17;;;17.80;63.80;;;;;;5079502;28;20478;-91
2021/05/19 11:39:34;;;;;;;1.55;0.20;;;17.80;59.60;;;;;;5060834;28;20773;-88
2021/05/19 11:42:18;;;;;;;0.73;0.20;;;17.80;57.40;;;;;;5081421;28;20032;-89
2021/05/19 11:45:06;;;;;;;0.90;0.10;;;18.10;58.30;;;;;;5083490;28;20041;-88
2021/05/19 11:47:32;;;;;;;1.20;0.20;;;18.50;56.20;;;;;;5077724;28;20032;-88
2021/05/19 11:50:22;;;;;;;1.05;0.20;;;18.80;53.80;;;;;;5080460;28;20028;-90
2021/05/19 11:52:53;;;;;;;0.98;0.17;;;18.70;56.10;;;;;;5086003;28;20486;-89
2021/05/19 11:55:37;;;;;;;2.40;0.22;;;19.00;56.60;;;;;;5075967;28;20050;-90
2021/05/19 11:58:17;;;;;;;2.28;0.30;;;19.40;56.10;;;;;;5072614;28;20797;-88
2021/05/19 12:00:45;;;;;;;1.90;0.30;;;19.50;54.80;;;;;;5083831;28;20028;-89
2021/05/19 12:03:13;;;;;;;0.60;0.10;;;19.30;54.70;;;;;;5080430;28;20055;-90
2021/05/19 12:05:43;;;;;;;1.05;0.10;;;19.40;53.70;;;;;;5073864;28;20111;-89
2021/05/19 12:08:10;;;;;;;0.85;0.17;;;19.20;53.90;;;;;;5075612;28;20020;-89
2021/05/19 12:10:38;;;;;;;2.83;0.30;;;19.10;52.70;;;;;;5074147;28;20036;-87
2021/05/19 12:13:04;;;;;;;1.45;0.20;;;19.20;53.30;;;;;;5073046;28;20021;-85
2021/05/19 12:15:35;;;;;;;3.45;0.30;;;19.50;55.60;;;;;;5072639;28;20036;-87
2021/05/19 12:18:03;;;;;;;1.27;0.30;;;18.90;55.20;;;;;;5067779;28;20024;-87
2021/05/19 12:20:29;;;;;;;1.30;0.30;;;19.10;55.90;;;;;;5071103;28;20069;-87
2021/05/19 12:22:59;;;;;;;1.67;0.28;;;19.10;56.20;;;;;;5072644;28;20028;-87
2021/05/19 12:25:25;;;;;;;1.25;0.28;;;19.40;55.00;;;;;;5076972;28;20024;-86
2021/05/19 12:28:03;;;;;;;1.48;0.28;;;19.70;54.80;;;;;;5083553;28;20050;-86
2021/05/19 12:30:48;;;;;;;1.55;0.40;;;19.50;55.20;;;;;;5067153;28;20036;-86
2021/05/19 12:33:16;;;;;;;1.45;0.30;;;18.90;54.30;;;;;;5077632;28;20028;-85
2021/05/19 12:35:47;;;;;;;2.13;0.32;;;18.30;54.60;;;;;;5087313;28;20016;-86
2021/05/19 12:38:16;;;;;;;0.17;0.10;;;18.60;54.90;;;;;;5085693;28;20016;-88
2021/05/19 12:40:45;;;;;;;2.15;0.40;;;19.00;53.30;;;;;;5076298;28;20508;-88
2021/05/19 12:43:26;;;;;;;0.63;0.10;;;19.20;54.60;;;;;;5084627;28;20028;-88
2021/05/19 12:45:54;;;;;;;1.13;0.22;;;19.20;55.90;;;;;;5075491;28;20414;-89
2021/05/19 12:48:21;;;;;;;1.25;0.20;;;20.00;58.00;;;;;;5074660;28;20090;-89
2021/05/19 12:51:01;;;;;;;0.45;0.10;;;20.70;50.30;;;;;;5084347;28;20039;-89
2021/05/19 12:53:38;;;;;;;1.48;0.20;;;20.50;49.80;;;;;;5071816;28;20082;-86
2021/05/19 12:56:25;;;;;;;0.90;0.20;;;19.90;52.60;;;;;;5068209;28;20020;-87
2021/05/19 12:58:59;;;;;;;1.08;0.30;;;20.10;51.10;;;;;;5080337;28;20078;-86
2021/05/19 13:01:28;;;;;;;0.68;0.20;;;20.60;52.70;;;;;;5071897;28;20075;-87
2021/05/19 13:03:54;;;;;;;1.73;0.35;;;20.70;50.70;;;;;;5079840;28;20459;-88
2021/05/19 13:06:26;;;;;;;1.00;0.20;;;20.80;51.20;;;;;;5079470;28;20120;-87
2021/05/19 13:09:04;;;;;;;2.88;0.20;;;21.40;50.50;;;;;;5070221;28;20016;-88
2021/05/19 13:11:31;;;;;;;0.68;0.15;;;21.70;51.30;;;;;;5078529;28;20051;-88
2021/05/19 13:13:57;;;;;;;1.65;0.35;;;21.40;47.80;;;;;;5074218;28;20016;-86
2021/05/19 13:16:38;;;;;;;1.75;0.30;;;20.90;48.10;;;;;;5081697;28;20132;-85
2021/05/19 13:19:11;;;;;;;1.50;0.20;;;20.30;49.80;;;;;;5065303;28;20320;-88
2021/05/19 13:24:16;;;;;;;0.95;0.13;;;21.10;50.00;;;;;;5055758;28;20025;-90
2021/05/19 13:26:52;;;;;;;1.95;0.40;;;21.40;48.20;;;;;;5070516;28;20111;-87